Main page
METAR-TAF:

METAR-TAF

Airports :

Llano Municipal Airport

Llano, Texas, United States

latitude: 30-47-01N, longitude: 098-39-43W, elevation: 1102 ft

Current weather observation

The report was made 37 minutes ago, at 09:10 UTC
Calm wind
Temperature 70°F
Humidity 100%
Pressure 29.83 in. Hg
Visibility: 1.5 miles
Broken clouds at a height of 100 ft
Overcast at a height of 1400 ft
mist

METAR: KAQO 190910Z AUTO 00000KT 1 1/2SM BR BKN001 OVC014 21/21 A2983 RMK AO2

Time: 04:47 (09:47 UTC)


TAF: missing

Weather observations and forecasts of more than 4000 airports (METAR and TAF reports).

The available stations are represented by yellow and red dots on the map.

Hover mouse over dot to see the name of the station.

Then click to see weather observations and forecasts.

To change the map : click on the green buttons with a black cross to zoom in, on the green button with a dash to zoom out, or on the green arrows for adjacent maps.


METAR-TAF: